Latest Weather Observations for Clermont Airport

IDQ60801

Issued at 1:32 pm EST Thursday 28 May 2015 (issued every 30 minutes, with the page automatically refreshed every 10 minutes)

About weather observations | Map of weather stations | Latest weather observations for QLD | Other Formats
Station Details ID: 035124 Name: CLERMONT AIRPORT Lat: -22.78 Lon: 147.62 Height: 270.27 m
Data from the previous 72 hours. | See also: Recent months at Clermont Airport
Date/Time
EST
Temp
°C
App
Temp
°C
Dew
Point
Rel
Hum
%
Delta-T
°C
Wind Press
QNH
hPa
Press
MSL
hPa
Rain
since 9 am
mm
Dir
 
Spd
km/h
Gust
km/h
Spd
kts
Gust
kts
28/01:30pm 25.8 24.3 11.9 42 8.0 E 11 24 6 13 1020.1 1019.3 0.0
28/01:00pm 25.3 25.0 13.2 47 7.1 SE 7 17 4 9 1020.6 1019.9 0.0
28/12:30pm 25.7 24.5 12.9 45 7.5 E 11 19 6 10 1021.1 1020.4 0.0
28/12:00pm 24.2 23.4 12.8 49 6.6 ESE 9 19 5 10 1021.8 1021.1 0.0
28/11:30am 24.3 23.8 13.8 52 6.2 SE 9 20 5 11 1022.4 1021.6 0.0
28/11:00am 23.9 23.2 14.3 55 5.7 SE 11 19 6 10 1023.1 1022.3 0.0
28/10:30am 23.1 23.4 14.4 58 5.2 ENE 6 11 3 6 1023.4 1022.6 0.0
28/10:00am 21.4 21.4 14.1 63 4.3 SE 7 15 4 8 1023.7 1022.9 0.0
28/09:30am 20.8 21.1 14.5 67 3.7 ESE 6 9 3 5 1023.7 1022.9 0.0
28/09:00am 18.7 18.6 13.3 71 3.1 S 6 9 3 5 1023.8 1023.1 0.0
28/08:30am 16.8 16.1 12.1 74 2.6 SSE 7 9 4 5 1023.4 1022.6 0.0
28/08:00am 15.2 15.0 11.8 80 1.9 SSW 4 7 2 4 1023.0 1022.2 0.0
28/07:30am 12.2 12.1 9.4 83 1.4 CALM 0 0 0 0 1022.8 1022.0 0.0
28/07:00am 10.4 9.6 8.3 87 1.0 SSW 2 4 1 2 1022.5 1021.7 0.0
28/06:30am 9.9 9.4 7.7 86 1.1 CALM 0 0 0 0 1022.2 1021.4 0.0
28/06:00am 9.7 9.1 7.3 85 1.2 CALM 0 0 0 0 1021.6 1020.9 0.0
28/05:30am 10.1 9.6 7.9 86 1.1 CALM 0 0 0 0 1021.3 1020.6 0.0
28/05:00am 10.3 9.8 7.9 85 1.2 CALM 0 0 0 0 1021.1 1020.4 0.0
28/04:30am 10.5 10.0 7.9 84 1.3 CALM 0 2 0 1 1021.2 1020.5 0.0
28/04:00am 10.7 9.5 8.1 84 1.3 SW 4 6 2 3 1021.1 1020.4 0.0
28/03:30am 11.4 10.0 9.0 85 1.2 SW 6 7 3 4 1020.9 1020.2 0.0
28/03:00am 11.3 10.9 8.3 82 1.5 CALM 0 0 0 0 1020.9 1020.2 0.0
28/02:30am 11.5 10.3 8.2 80 1.6 W 4 4 2 2 1020.9 1020.2 0.0
28/02:00am 11.8 10.7 8.3 79 1.7 SW 4 4 2 2 1021.0 1020.3 0.0
28/01:30am 12.2 11.9 8.5 78 1.9 CALM 0 0 0 0 1021.4 1020.7 0.0
28/01:00am 12.6 12.3 8.5 76 2.1 CALM 0 0 0 0 1021.6 1020.9 0.0
28/12:30am 13.6 13.2 8.2 70 2.7 CALM 0 0 0 0 1021.6 1020.9 0.0
28/12:00am 14.4 14.2 9.2 71 2.7 CALM 0 0 0 0 1021.5 1020.8 0.0
 
Date/Time
EST
Temp
°C
App
Temp
°C
Dew
Point
Rel
Hum
%
Delta-T
°C
Wind Press
QNH
hPa
Press
MSL
hPa
Rain
since 9 am
mm
Dir
 
Spd
km/h
Gust
km/h
Spd
kts
Gust
kts
27/11:30pm 13.9 13.5 8.3 69 2.8 CALM 0 0 0 0 1021.8 1021.1 0.0
27/11:00pm 15.5 15.5 9.8 69 3.0 CALM 0 0 0 0 1021.7 1021.0 0.0
27/10:30pm 14.5 14.3 8.9 69 2.9 CALM 0 0 0 0 1021.4 1020.7 0.0
27/10:00pm 15.0 14.7 8.7 66 3.2 CALM 0 0 0 0 1021.2 1020.5 0.0
27/09:30pm 15.4 15.2 9.1 66 3.3 CALM 0 0 0 0 1021.1 1020.4 0.0
27/09:00pm 15.8 15.5 8.8 63 3.6 CALM 0 0 0 0 1021.1 1020.4 0.0
27/08:30pm 17.0 16.8 9.2 60 4.1 CALM 0 0 0 0 1021.1 1020.4 0.0
27/08:00pm 17.6 17.5 9.5 59 4.3 CALM 0 0 0 0 1021.1 1020.4 0.0
27/07:30pm 18.8 18.6 9.0 53 5.2 CALM 0 0 0 0 1020.7 1020.0 0.0
27/07:00pm 21.1 21.2 10.0 49 6.1 CALM 0 4 0 2 1020.5 1019.7 0.0
27/06:30pm 22.6 22.0 10.4 46 6.8 SSE 4 6 2 3 1020.1 1019.3 0.0
27/06:00pm 23.5 23.0 10.6 44 7.2 SE 4 6 2 3 1019.8 1019.0 0.0
27/05:30pm 24.5 23.3 10.4 41 7.9 SE 7 13 4 7 1019.4 1018.6 0.0
27/05:00pm 25.4 23.8 10.1 38 8.6 ESE 9 17 5 9 1019.2 1018.4 0.0
27/04:30pm 26.3 24.8 10.5 37 9.0 ESE 9 15 5 8 1019.1 1018.3 0.0
27/04:00pm 26.2 24.7 10.4 37 8.9 ESE 9 19 5 10 1019.1 1018.3 0.0
27/03:30pm 26.5 24.2 10.6 37 9.0 SE 13 22 7 12 1019.3 1018.5 0.0
27/03:00pm 25.5 23.6 10.5 39 8.4 ESE 11 17 6 9 1019.5 1018.7 0.0
27/02:30pm 26.0 24.1 10.6 38 8.7 ESE 11 19 6 10 1019.8 1019.0 0.0
27/02:00pm 25.2 24.1 10.6 40 8.2 E 7 15 4 8 1020.0 1019.2 0.0
27/01:30pm 26.0 24.9 10.6 38 8.7 S 7 17 4 9 1020.2 1019.4 0.0
27/01:00pm 25.5 24.2 11.3 41 8.1 E 9 17 5 9 1020.6 1019.9 0.0
27/12:30pm 25.4 24.3 11.9 43 7.8 E 9 19 5 10 1021.0 1020.3 0.0
27/12:00pm 25.1 23.4 12.3 45 7.4 ESE 13 26 7 14 1021.8 1021.1 0.0
27/11:30am 24.8 23.6 12.7 47 7.1 SE 11 26 6 14 1022.7 1021.9 0.0
27/11:00am 23.2 22.5 13.1 53 5.9 ENE 9 20 5 11 1023.3 1022.5 0.0
27/10:30am 21.7 21.0 13.1 58 5.0 SSE 9 17 5 9 1023.7 1022.9 0.0
27/10:00am 21.1 20.5 13.5 62 4.4 SE 9 17 5 9 1024.2 1023.5 0.0
27/09:30am 19.6 18.7 12.6 64 4.0 SE 9 15 5 8 1024.4 1023.7 0.0
27/09:00am 19.1 18.6 12.8 67 3.6 SE 7 13 4 7 1024.3 1023.6 0.0
27/08:30am 17.1 16.6 12.2 73 2.7 SSE 6 11 3 6 1024.1 1023.4 0.0
27/08:00am 14.9 14.2 11.5 80 1.8 SSE 6 7 3 4 1023.9 1023.2 0.0
27/07:30am 11.9 11.5 9.8 87 1.1 SSW 2 6 1 3 1023.7 1022.9 0.0
27/07:00am 9.8 9.3 7.7 87 1.0 CALM 0 0 0 0 1023.2 1022.4 0.0
27/06:30am 10.1 9.7 8.4 89 0.8 CALM 0 0 0 0 1023.3 1022.5 0.0
27/06:00am 10.1 9.6 7.9 86 1.1 CALM 0 0 0 0 1022.7 1021.9 0.0
27/05:30am 10.5 9.4 8.3 86 1.1 S 4 4 2 2 1022.5 1021.7 0.0
27/05:00am 10.5 9.0 8.6 88 0.9 S 6 6 3 3 1022.2 1021.4 0.0
27/04:30am 10.9 10.6 8.8 87 1.1 CALM 0 0 0 0 1022.2 1021.4 0.0
27/04:00am 10.8 9.8 8.7 87 1.0 SSW 4 6 2 3 1022.5 1021.7 0.0
27/03:30am 10.8 10.1 8.4 85 1.2 WSW 2 4 1 2 1022.2 1021.4 0.0
27/03:00am 11.4 10.0 9.0 85 1.2 SW 6 6 3 3 1022.2 1021.4 0.0
27/02:30am 11.7 10.7 8.9 83 1.4 SW 4 6 2 3 1022.2 1021.4 0.0
27/02:00am 11.8 10.4 9.0 83 1.4 SW 6 6 3 3 1022.4 1021.6 0.0
27/01:30am 12.4 12.1 8.7 78 1.9 CALM 0 0 0 0 1022.5 1021.7 0.0
27/01:00am 12.3 11.8 8.0 75 2.1 CALM 0 0 0 0 1022.5 1021.7 0.0
27/12:30am 14.6 13.8 9.8 73 2.5 SSE 4 6 2 3 1022.8 1022.0 0.0
27/12:00am 14.5 13.6 9.1 70 2.8 S 4 6 2 3 1023.0 1022.2 0.0
 
Date/Time
EST
Temp
°C
App
Temp
°C
Dew
Point
Rel
Hum
%
Delta-T
°C
Wind Press
QNH
hPa
Press
MSL
hPa
Rain
since 9 am
mm
Dir
 
Spd
km/h
Gust
km/h
Spd
kts
Gust
kts
26/11:30pm 15.8 15.3 9.5 66 3.3 SE 2 4 1 2 1023.0 1022.2 0.0
26/11:00pm 16.9 16.3 10.3 65 3.5 SSE 4 6 2 3 1023.4 1022.6 0.0
26/10:30pm 16.2 15.6 10.5 69 3.1 SSE 4 6 2 3 1023.5 1022.7 0.0
26/10:00pm 16.1 15.4 10.0 67 3.2 SSE 4 6 2 3 1023.5 1022.7 0.0
26/09:30pm 16.3 16.3 9.7 65 3.5 CALM 0 0 0 0 1023.2 1022.4 0.0
26/09:00pm 16.3 15.9 9.7 65 3.5 E 2 6 1 3 1023.1 1022.3 0.0
26/08:30pm 18.5 18.5 11.1 62 4.1 SE 2 6 1 3 1023.6 1022.8 0.0
26/08:00pm 18.4 18.6 10.5 60 4.3 CALM 0 2 0 1 1023.4 1022.6 0.0
26/07:30pm 19.8 19.7 10.8 56 5.0 ESE 2 4 1 2 1023.2 1022.4 0.0
26/07:00pm 21.0 20.2 11.1 53 5.5 ESE 6 9 3 5 1023.0 1022.2 0.0
26/06:30pm 21.6 20.8 11.0 51 5.9 ESE 6 7 3 4 1022.6 1021.8 0.0
26/06:00pm 22.3 21.5 11.1 49 6.3 ESE 6 9 3 5 1022.3 1021.5 0.0
26/05:30pm 23.1 22.2 11.2 47 6.7 ESE 7 13 4 7 1022.1 1021.3 0.0
26/05:00pm 24.1 22.8 11.1 44 7.3 ESE 9 19 5 10 1021.7 1021.0 0.0
26/04:30pm 24.6 22.8 10.8 42 7.8 ESE 11 19 6 10 1021.5 1020.8 0.0
26/04:00pm 24.9 23.2 11.1 42 7.8 E 11 19 6 10 1021.5 1020.8 0.0
26/03:30pm 24.8 23.5 11.4 43 7.7 E 9 17 5 9 1021.5 1020.8 0.0
26/03:00pm 25.7 23.7 11.5 41 8.1 ESE 13 24 7 13 1021.6 1020.9 0.0
26/02:30pm 25.8 24.2 11.6 41 8.2 SE 11 20 6 11 1021.6 1020.9 0.0
26/02:00pm 25.1 23.4 11.3 42 7.9 ESE 11 20 6 11 1021.8 1021.1 0.0
26/01:30pm 24.4 22.3 11.0 43 7.6 ESE 13 26 7 14 1022.4 1021.6 0.0
26/01:00pm 25.3 23.3 11.5 42 7.9 ESE 13 22 7 12 1023.0 1022.2 0.0
26/12:30pm 23.9 21.9 11.6 46 7.0 SE 13 20 7 11 1023.7 1022.9 0.0
26/12:00pm 24.4 22.2 12.0 46 7.1 E 15 24 8 13 1024.3 1023.6 0.0
26/11:30am 23.8 21.7 11.2 45 7.1 ESE 13 24 7 13 1025.0 1024.3 0.0
26/11:00am 23.8 22.5 12.4 48 6.6 ESE 11 19 6 10 1025.6 1024.9 0.0
26/10:30am 22.5 21.4 13.0 55 5.5 ESE 11 24 6 13 1026.3 1025.5 0.0
26/10:00am 20.7 19.8 12.7 60 4.6 E 9 15 5 8 1026.6 1025.8 0.0
26/09:30am 19.4 18.4 12.4 64 4.0 SE 9 17 5 9 1027.0 1026.3 0.0
26/09:00am 18.1 17.7 12.3 69 3.2 SE 6 13 3 7 1027.1 1026.4 0.0
26/08:30am 16.8 16.4 12.5 76 2.4 SE 6 9 3 5 1026.9 1026.1 0.0
26/08:00am 15.0 14.5 12.1 83 1.6 SSE 6 9 3 5 1026.8 1026.0 0.0
26/07:30am 13.0 12.4 11.7 92 0.7 SSW 6 7 3 4 1026.5 1025.7 0.0
26/07:00am 11.5 11.6 10.2 92 0.7 CALM 0 0 0 0 1026.0 1025.2 0.0
26/06:30am 12.1 12.0 10.8 92 0.7 S 2 4 1 2 1026.1 1025.3 0.0
26/06:00am 12.8 13.2 11.4 91 0.7 CALM 0 4 0 2 1026.0 1025.2 0.0
26/05:30am 13.1 12.2 11.5 90 0.9 S 7 9 4 5 1026.1 1025.3 0.0
26/05:00am 13.4 12.6 11.6 89 1.0 SSE 7 9 4 5 1025.9 1025.1 0.0
26/04:30am 13.7 12.9 11.6 87 1.1 SSE 7 11 4 6 1025.9 1025.1 0.0
26/04:00am 13.6 12.7 11.3 86 1.2 SSE 7 9 4 5 1025.6 1024.9 0.0
26/03:30am 13.9 13.7 11.8 87 1.1 SSE 4 6 2 3 1025.7 1025.0 0.0
26/03:00am 13.5 12.8 11.4 87 1.1 SSE 6 7 3 4 1026.2 1025.4 0.0
26/02:30am 11.7 11.3 9.8 88 1.0 SSE 2 4 1 2 1026.1 1025.3 0.0
26/02:00am 11.4 10.6 9.5 88 1.0 SW 4 6 2 3 1026.4 1025.6 0.0
26/01:30am 12.1 12.0 9.5 84 1.3 CALM 0 0 0 0 1026.4 1025.6 0.0
26/01:00am 13.3 12.8 10.7 84 1.4 ESE 4 4 2 2 1026.3 1025.5 0.0
26/12:30am 13.0 12.9 9.6 80 1.8 CALM 0 0 0 0 1026.4 1025.6 0.0
26/12:00am 14.2 14.3 10.0 76 2.2 CALM 0 0 0 0 1026.2 1025.4 0.0
 
Date/Time
EST
Temp
°C
App
Temp
°C
Dew
Point
Rel
Hum
%
Delta-T
°C
Wind Press
QNH
hPa
Press
MSL
hPa
Rain
since 9 am
mm
Dir
 
Spd
km/h
Gust
km/h
Spd
kts
Gust
kts
25/11:30pm 16.2 16.3 11.6 74 2.5 SSE 2 4 1 2 1026.1 1025.3 0.0
25/11:00pm 16.8 16.9 11.5 71 2.9 SE 2 7 1 4 1026.2 1025.4 0.0
25/10:30pm 17.6 18.2 11.9 69 3.2 CALM 0 2 0 1 1026.3 1025.5 0.0
25/10:00pm 17.9 18.2 12.1 69 3.2 SE 2 6 1 3 1025.9 1025.1 0.0
25/09:30pm 18.6 18.7 12.6 68 3.4 E 4 7 2 4 1026.2 1025.4 0.0
25/09:00pm 19.0 18.8 13.0 68 3.4 ESE 6 11 3 6 1026.2 1025.4 0.0
25/08:30pm 19.0 19.2 13.2 69 3.3 SE 4 9 2 5 1026.5 1025.7 0.0
25/08:00pm 18.8 18.7 13.4 71 3.1 SE 6 9 3 5 1026.5 1025.7 0.0
25/07:30pm 18.9 18.9 13.5 71 3.1 ESE 6 9 3 5 1026.0 1025.2 0.0
25/07:00pm 19.0 19.0 13.6 71 3.1 SE 6 11 3 6 1025.6 1024.9 0.0
25/06:30pm 19.7 18.8 13.6 68 3.5 SE 11 19 6 10 1025.2 1024.5 0.0
25/06:00pm 20.4 20.1 12.6 61 4.4 SE 6 9 3 5 1024.9 1024.2 0.0
25/05:30pm 21.1 20.5 12.3 57 5.0 E 7 13 4 7 1024.3 1023.6 0.0
25/05:00pm 21.8 20.9 12.6 56 5.3 ESE 9 20 5 11 1024.2 1023.5 0.0
25/04:30pm 22.4 20.7 12.6 54 5.6 E 13 22 7 12 1024.1 1023.4 0.0
25/04:00pm 22.5 21.0 13.0 55 5.5 E 13 22 7 12 1023.9 1023.2 0.0
25/03:30pm 22.5 21.0 13.0 55 5.5 ESE 13 24 7 13 1024.1 1023.4 0.0
25/03:00pm 22.3 20.3 12.8 55 5.5 ESE 15 22 8 12 1024.2 1023.5 0.0
25/02:30pm 22.9 21.7 12.8 53 5.9 ENE 11 20 6 11 1024.4 1023.7 0.0
25/02:00pm 22.8 20.9 13.0 54 5.7 ESE 15 28 8 15 1024.7 1024.0 0.0

Other Formats:

Comma delimited format used in spreadsheet applications
http://www.bom.gov.au/fwo/IDQ60801/IDQ60801.94395.axf

JavaScript Object Notation format (JSON) in row-major order
http://www.bom.gov.au/fwo/IDQ60801/IDQ60801.94395.json